sensor_id;sensor_type;location;lat;lon;timestamp;temperature;humidity
74809;DHT22;63338;39.544;2.596;2022-11-09T00:01:21;20.00;90.40
74809;DHT22;63338;39.544;2.596;2022-11-09T00:03:47;19.90;90.30
74809;DHT22;63338;39.544;2.596;2022-11-09T00:06:16;19.90;90.30
74809;DHT22;63338;39.544;2.596;2022-11-09T00:08:42;19.90;90.40
74809;DHT22;63338;39.544;2.596;2022-11-09T00:11:10;19.80;90.40
74809;DHT22;63338;39.544;2.596;2022-11-09T00:13:39;19.80;90.40
74809;DHT22;63338;39.544;2.596;2022-11-09T00:16:07;19.80;90.50
74809;DHT22;63338;39.544;2.596;2022-11-09T00:18:34;19.80;90.60
74809;DHT22;63338;39.544;2.596;2022-11-09T00:21:08;19.80;90.70
74809;DHT22;63338;39.544;2.596;2022-11-09T00:23:35;19.80;91.20
74809;DHT22;63338;39.544;2.596;2022-11-09T00:26:02;19.90;91.00
74809;DHT22;63338;39.544;2.596;2022-11-09T00:28:29;20.00;91.00
74809;DHT22;63338;39.544;2.596;2022-11-09T00:31:03;19.90;91.30
74809;DHT22;63338;39.544;2.596;2022-11-09T00:33:30;20.00;91.00
74809;DHT22;63338;39.544;2.596;2022-11-09T00:35:56;19.90;91.70
74809;DHT22;63338;39.544;2.596;2022-11-09T00:38:23;20.00;91.60
74809;DHT22;63338;39.544;2.596;2022-11-09T00:40:49;20.10;91.40
74809;DHT22;63338;39.544;2.596;2022-11-09T00:43:15;20.10;91.20
74809;DHT22;63338;39.544;2.596;2022-11-09T00:45:41;20.20;91.10
74809;DHT22;63338;39.544;2.596;2022-11-09T00:48:07;20.20;91.40
74809;DHT22;63338;39.544;2.596;2022-11-09T00:50:33;20.10;91.40
74809;DHT22;63338;39.544;2.596;2022-11-09T00:53:00;20.20;91.20
74809;DHT22;63338;39.544;2.596;2022-11-09T00:55:26;20.20;91.20
74809;DHT22;63338;39.544;2.596;2022-11-09T00:57:52;20.30;91.10
74809;DHT22;63338;39.544;2.596;2022-11-09T01:00:20;20.20;91.10
74809;DHT22;63338;39.544;2.596;2022-11-09T01:02:49;20.20;91.00
74809;DHT22;63338;39.544;2.596;2022-11-09T01:05:15;20.20;91.10
74809;DHT22;63338;39.544;2.596;2022-11-09T01:07:41;20.20;90.90
74809;DHT22;63338;39.544;2.596;2022-11-09T01:10:08;20.20;91.10
74809;DHT22;63338;39.544;2.596;2022-11-09T01:12:34;20.10;91.00
74809;DHT22;63338;39.544;2.596;2022-11-09T01:15:00;20.20;91.00
74809;DHT22;63338;39.544;2.596;2022-11-09T01:17:26;20.10;91.10
74809;DHT22;63338;39.544;2.596;2022-11-09T01:19:52;20.10;91.40
74809;DHT22;63338;39.544;2.596;2022-11-09T01:22:18;20.10;91.10
74809;DHT22;63338;39.544;2.596;2022-11-09T01:24:44;20.20;91.10
74809;DHT22;63338;39.544;2.596;2022-11-09T01:27:10;20.10;91.10
74809;DHT22;63338;39.544;2.596;2022-11-09T01:29:36;20.00;91.10
74809;DHT22;63338;39.544;2.596;2022-11-09T01:32:03;20.00;91.20
74809;DHT22;63338;39.544;2.596;2022-11-09T01:34:29;20.10;91.40
74809;DHT22;63338;39.544;2.596;2022-11-09T01:36:55;20.10;91.60
74809;DHT22;63338;39.544;2.596;2022-11-09T01:39:21;20.10;91.80
74809;DHT22;63338;39.544;2.596;2022-11-09T01:41:47;20.00;91.90
74809;DHT22;63338;39.544;2.596;2022-11-09T01:44:16;20.00;91.90
74809;DHT22;63338;39.544;2.596;2022-11-09T01:49:22;20.10;91.50
74809;DHT22;63338;39.544;2.596;2022-11-09T01:52:16;20.00;91.60
74809;DHT22;63338;39.544;2.596;2022-11-09T01:54:45;19.90;92.00
74809;DHT22;63338;39.544;2.596;2022-11-09T01:57:27;19.90;92.10
74809;DHT22;63338;39.544;2.596;2022-11-09T02:00:08;20.00;92.20
74809;DHT22;63338;39.544;2.596;2022-11-09T02:02:35;19.90;92.40
74809;DHT22;63338;39.544;2.596;2022-11-09T02:05:09;20.10;92.60
74809;DHT22;63338;39.544;2.596;2022-11-09T02:07:38;20.00;92.10
74809;DHT22;63338;39.544;2.596;2022-11-09T02:12:37;19.90;92.20
74809;DHT22;63338;39.544;2.596;2022-11-09T02:15:05;19.90;92.50
74809;DHT22;63338;39.544;2.596;2022-11-09T02:17:33;20.00;92.50
74809;DHT22;63338;39.544;2.596;2022-11-09T02:20:00;19.90;92.60
74809;DHT22;63338;39.544;2.596;2022-11-09T02:22:28;20.00;92.80
74809;DHT22;63338;39.544;2.596;2022-11-09T02:24:54;20.00;93.00
74809;DHT22;63338;39.544;2.596;2022-11-09T02:27:20;20.00;92.50
74809;DHT22;63338;39.544;2.596;2022-11-09T02:29:50;20.10;92.50
74809;DHT22;63338;39.544;2.596;2022-11-09T02:32:22;20.00;92.50
74809;DHT22;63338;39.544;2.596;2022-11-09T02:34:49;20.10;92.30
74809;DHT22;63338;39.544;2.596;2022-11-09T02:40:01;20.00;92.60
74809;DHT22;63338;39.544;2.596;2022-11-09T02:42:28;20.00;92.70
74809;DHT22;63338;39.544;2.596;2022-11-09T02:44:57;20.00;92.60
74809;DHT22;63338;39.544;2.596;2022-11-09T02:47:23;20.00;92.70
74809;DHT22;63338;39.544;2.596;2022-11-09T02:49:49;20.00;92.70
74809;DHT22;63338;39.544;2.596;2022-11-09T02:52:17;20.10;92.60
74809;DHT22;63338;39.544;2.596;2022-11-09T02:54:43;20.00;92.10
74809;DHT22;63338;39.544;2.596;2022-11-09T02:57:09;20.00;91.90
74809;DHT22;63338;39.544;2.596;2022-11-09T02:59:35;19.80;92.10
74809;DHT22;63338;39.544;2.596;2022-11-09T03:02:01;19.90;92.40
74809;DHT22;63338;39.544;2.596;2022-11-09T03:04:27;19.80;92.40
74809;DHT22;63338;39.544;2.596;2022-11-09T03:06:53;19.90;92.30
74809;DHT22;63338;39.544;2.596;2022-11-09T03:09:19;19.80;92.50
74809;DHT22;63338;39.544;2.596;2022-11-09T03:11:45;19.80;92.80
74809;DHT22;63338;39.544;2.596;2022-11-09T03:14:11;19.80;92.60
74809;DHT22;63338;39.544;2.596;2022-11-09T03:16:38;19.80;92.10
74809;DHT22;63338;39.544;2.596;2022-11-09T03:19:05;19.70;92.10
74809;DHT22;63338;39.544;2.596;2022-11-09T03:21:31;19.60;91.90
74809;DHT22;63338;39.544;2.596;2022-11-09T03:23:57;19.60;91.50
74809;DHT22;63338;39.544;2.596;2022-11-09T03:26:23;19.50;91.80
74809;DHT22;63338;39.544;2.596;2022-11-09T03:28:49;19.50;91.90
74809;DHT22;63338;39.544;2.596;2022-11-09T03:31:15;19.40;92.40
74809;DHT22;63338;39.544;2.596;2022-11-09T03:33:41;19.40;92.70
74809;DHT22;63338;39.544;2.596;2022-11-09T03:36:08;19.40;93.00
74809;DHT22;63338;39.544;2.596;2022-11-09T03:38:34;19.50;93.00
74809;DHT22;63338;39.544;2.596;2022-11-09T03:41:01;19.50;93.30
74809;DHT22;63338;39.544;2.596;2022-11-09T03:43:28;19.60;92.90
74809;DHT22;63338;39.544;2.596;2022-11-09T03:45:54;19.50;92.70
74809;DHT22;63338;39.544;2.596;2022-11-09T03:48:24;19.40;93.00
74809;DHT22;63338;39.544;2.596;2022-11-09T03:50:50;19.50;93.10
74809;DHT22;63338;39.544;2.596;2022-11-09T03:53:16;19.50;93.20
74809;DHT22;63338;39.544;2.596;2022-11-09T03:55:42;19.40;93.40
74809;DHT22;63338;39.544;2.596;2022-11-09T03:58:09;19.40;93.60
74809;DHT22;63338;39.544;2.596;2022-11-09T04:00:36;19.50;93.70
74809;DHT22;63338;39.544;2.596;2022-11-09T04:03:02;19.50;93.60
74809;DHT22;63338;39.544;2.596;2022-11-09T04:05:28;19.40;93.60
74809;DHT22;63338;39.544;2.596;2022-11-09T04:07:56;19.50;93.50
74809;DHT22;63338;39.544;2.596;2022-11-09T04:10:24;19.50;93.50
74809;DHT22;63338;39.544;2.596;2022-11-09T04:12:50;19.40;93.60
74809;DHT22;63338;39.544;2.596;2022-11-09T04:15:18;19.50;93.80
74809;DHT22;63338;39.544;2.596;2022-11-09T04:17:44;19.40;94.10
74809;DHT22;63338;39.544;2.596;2022-11-09T04:20:10;19.50;94.00
74809;DHT22;63338;39.544;2.596;2022-11-09T04:22:36;19.40;94.10
74809;DHT22;63338;39.544;2.596;2022-11-09T04:25:03;19.40;94.30
74809;DHT22;63338;39.544;2.596;2022-11-09T04:27:31;19.40;94.70
74809;DHT22;63338;39.544;2.596;2022-11-09T04:29:57;19.50;94.70
74809;DHT22;63338;39.544;2.596;2022-11-09T04:32:23;19.50;94.30
74809;DHT22;63338;39.544;2.596;2022-11-09T04:34:49;19.60;94.40
74809;DHT22;63338;39.544;2.596;2022-11-09T04:37:15;19.50;94.20
74809;DHT22;63338;39.544;2.596;2022-11-09T04:39:41;19.50;94.40
74809;DHT22;63338;39.544;2.596;2022-11-09T04:42:07;19.50;94.40
74809;DHT22;63338;39.544;2.596;2022-11-09T04:44:33;19.50;94.20
74809;DHT22;63338;39.544;2.596;2022-11-09T04:46:59;19.50;94.30
74809;DHT22;63338;39.544;2.596;2022-11-09T04:49:25;19.50;94.20
74809;DHT22;63338;39.544;2.596;2022-11-09T04:51:51;19.40;94.40
74809;DHT22;63338;39.544;2.596;2022-11-09T04:54:17;19.50;94.50
74809;DHT22;63338;39.544;2.596;2022-11-09T04:56:43;19.50;94.50
74809;DHT22;63338;39.544;2.596;2022-11-09T04:59:09;19.50;94.70
74809;DHT22;63338;39.544;2.596;2022-11-09T05:01:35;19.40;94.40
74809;DHT22;63338;39.544;2.596;2022-11-09T05:04:01;19.40;94.50
74809;DHT22;63338;39.544;2.596;2022-11-09T05:06:27;19.40;94.40
74809;DHT22;63338;39.544;2.596;2022-11-09T05:08:58;19.40;94.50
74809;DHT22;63338;39.544;2.596;2022-11-09T05:11:24;19.40;94.10
74809;DHT22;63338;39.544;2.596;2022-11-09T05:13:50;19.30;93.70
74809;DHT22;63338;39.544;2.596;2022-11-09T05:16:16;19.30;93.50
74809;DHT22;63338;39.544;2.596;2022-11-09T05:18:43;19.40;93.60
74809;DHT22;63338;39.544;2.596;2022-11-09T05:21:09;19.30;93.70
74809;DHT22;63338;39.544;2.596;2022-11-09T05:23:36;19.20;93.70
74809;DHT22;63338;39.544;2.596;2022-11-09T05:26:20;19.20;93.80
74809;DHT22;63338;39.544;2.596;2022-11-09T05:28:49;19.10;93.50
74809;DHT22;63338;39.544;2.596;2022-11-09T05:31:15;19.10;93.30
74809;DHT22;63338;39.544;2.596;2022-11-09T05:33:41;19.00;93.20
74809;DHT22;63338;39.544;2.596;2022-11-09T05:36:07;19.00;93.60
74809;DHT22;63338;39.544;2.596;2022-11-09T05:38:33;18.90;93.30
74809;DHT22;63338;39.544;2.596;2022-11-09T05:41:00;18.90;93.50
74809;DHT22;63338;39.544;2.596;2022-11-09T05:43:26;18.90;93.50
74809;DHT22;63338;39.544;2.596;2022-11-09T05:45:52;18.80;93.50
74809;DHT22;63338;39.544;2.596;2022-11-09T05:48:19;18.80;93.20
74809;DHT22;63338;39.544;2.596;2022-11-09T05:50:45;18.80;93.20
74809;DHT22;63338;39.544;2.596;2022-11-09T05:53:12;18.80;93.20
74809;DHT22;63338;39.544;2.596;2022-11-09T05:55:38;18.70;93.30
74809;DHT22;63338;39.544;2.596;2022-11-09T05:58:04;18.60;93.20
74809;DHT22;63338;39.544;2.596;2022-11-09T06:00:31;18.60;93.00
74809;DHT22;63338;39.544;2.596;2022-11-09T06:03:02;18.60;93.20
74809;DHT22;63338;39.544;2.596;2022-11-09T06:05:28;18.60;93.20
74809;DHT22;63338;39.544;2.596;2022-11-09T06:07:54;18.60;93.20
74809;DHT22;63338;39.544;2.596;2022-11-09T06:10:20;18.60;93.30
74809;DHT22;63338;39.544;2.596;2022-11-09T06:12:50;18.50;93.10
74809;DHT22;63338;39.544;2.596;2022-11-09T06:15:16;18.50;92.90
74809;DHT22;63338;39.544;2.596;2022-11-09T06:17:42;18.50;92.90
74809;DHT22;63338;39.544;2.596;2022-11-09T06:20:08;18.50;93.00
74809;DHT22;63338;39.544;2.596;2022-11-09T06:22:34;18.50;93.30
74809;DHT22;63338;39.544;2.596;2022-11-09T06:25:00;18.40;93.50
74809;DHT22;63338;39.544;2.596;2022-11-09T06:27:26;18.40;93.50
74809;DHT22;63338;39.544;2.596;2022-11-09T06:29:52;18.40;93.20
74809;DHT22;63338;39.544;2.596;2022-11-09T06:32:18;18.40;93.00
74809;DHT22;63338;39.544;2.596;2022-11-09T06:34:52;18.30;93.10
74809;DHT22;63338;39.544;2.596;2022-11-09T06:37:18;18.40;93.10
74809;DHT22;63338;39.544;2.596;2022-11-09T06:39:44;18.30;93.10
74809;DHT22;63338;39.544;2.596;2022-11-09T06:42:12;18.20;92.80
74809;DHT22;63338;39.544;2.596;2022-11-09T06:44:38;18.10;94.10
74809;DHT22;63338;39.544;2.596;2022-11-09T06:47:04;18.20;92.80
74809;DHT22;63338;39.544;2.596;2022-11-09T06:49:30;18.20;92.80
74809;DHT22;63338;39.544;2.596;2022-11-09T06:51:56;18.20;93.00
74809;DHT22;63338;39.544;2.596;2022-11-09T06:54:22;18.20;93.30
74809;DHT22;63338;39.544;2.596;2022-11-09T06:56:49;18.20;93.40
74809;DHT22;63338;39.544;2.596;2022-11-09T06:59:15;18.20;93.70
74809;DHT22;63338;39.544;2.596;2022-11-09T07:01:41;18.20;94.00
74809;DHT22;63338;39.544;2.596;2022-11-09T07:04:07;18.30;94.00
74809;DHT22;63338;39.544;2.596;2022-11-09T07:06:33;18.40;94.10
74809;DHT22;63338;39.544;2.596;2022-11-09T07:08:59;18.30;93.90
74809;DHT22;63338;39.544;2.596;2022-11-09T07:11:25;18.30;93.60
74809;DHT22;63338;39.544;2.596;2022-11-09T07:13:51;18.30;93.60
74809;DHT22;63338;39.544;2.596;2022-11-09T07:16:20;18.40;93.70
74809;DHT22;63338;39.544;2.596;2022-11-09T07:18:46;18.40;93.70
74809;DHT22;63338;39.544;2.596;2022-11-09T07:21:12;18.50;93.70
74809;DHT22;63338;39.544;2.596;2022-11-09T07:23:39;18.40;93.40
74809;DHT22;63338;39.544;2.596;2022-11-09T07:26:05;18.40;93.60
74809;DHT22;63338;39.544;2.596;2022-11-09T07:28:31;18.50;93.30
74809;DHT22;63338;39.544;2.596;2022-11-09T07:30:58;18.50;93.20
74809;DHT22;63338;39.544;2.596;2022-11-09T07:33:24;18.60;93.30
74809;DHT22;63338;39.544;2.596;2022-11-09T07:35:54;18.60;94.00
74809;DHT22;63338;39.544;2.596;2022-11-09T07:38:20;18.60;94.10
74809;DHT22;63338;39.544;2.596;2022-11-09T07:40:46;18.70;94.00
74809;DHT22;63338;39.544;2.596;2022-11-09T07:43:14;18.70;93.70
74809;DHT22;63338;39.544;2.596;2022-11-09T07:45:41;18.80;93.60
74809;DHT22;63338;39.544;2.596;2022-11-09T07:48:09;18.90;93.30
74809;DHT22;63338;39.544;2.596;2022-11-09T07:50:37;18.90;93.00
74809;DHT22;63338;39.544;2.596;2022-11-09T07:53:04;19.00;93.10
74809;DHT22;63338;39.544;2.596;2022-11-09T07:55:32;19.00;93.00
74809;DHT22;63338;39.544;2.596;2022-11-09T07:58:04;19.10;93.00
74809;DHT22;63338;39.544;2.596;2022-11-09T08:00:33;19.20;93.20
74809;DHT22;63338;39.544;2.596;2022-11-09T08:03:00;19.30;93.30
74809;DHT22;63338;39.544;2.596;2022-11-09T08:05:26;19.40;93.00
74809;DHT22;63338;39.544;2.596;2022-11-09T08:08:01;19.50;92.90
74809;DHT22;63338;39.544;2.596;2022-11-09T08:10:28;19.60;92.70
74809;DHT22;63338;39.544;2.596;2022-11-09T08:12:59;19.90;91.60
74809;DHT22;63338;39.544;2.596;2022-11-09T08:15:29;20.10;90.70
74809;DHT22;63338;39.544;2.596;2022-11-09T08:18:03;20.20;90.50
74809;DHT22;63338;39.544;2.596;2022-11-09T08:20:29;20.50;89.90
74809;DHT22;63338;39.544;2.596;2022-11-09T08:22:59;20.60;90.00
74809;DHT22;63338;39.544;2.596;2022-11-09T08:25:28;21.00;87.50
74809;DHT22;63338;39.544;2.596;2022-11-09T08:27:57;21.20;86.10
74809;DHT22;63338;39.544;2.596;2022-11-09T08:30:23;21.40;84.80
74809;DHT22;63338;39.544;2.596;2022-11-09T08:32:52;21.80;83.70
74809;DHT22;63338;39.544;2.596;2022-11-09T08:35:22;22.20;83.10
74809;DHT22;63338;39.544;2.596;2022-11-09T08:37:50;22.70;82.00
74809;DHT22;63338;39.544;2.596;2022-11-09T08:40:19;23.10;80.00
74809;DHT22;63338;39.544;2.596;2022-11-09T08:42:46;23.50;79.30
74809;DHT22;63338;39.544;2.596;2022-11-09T08:45:24;23.80;78.80
74809;DHT22;63338;39.544;2.596;2022-11-09T08:47:59;24.50;75.70
74809;DHT22;63338;39.544;2.596;2022-11-09T08:50:27;25.00;74.20
74809;DHT22;63338;39.544;2.596;2022-11-09T08:53:00;25.70;72.30
74809;DHT22;63338;39.544;2.596;2022-11-09T08:55:30;26.30;70.70
74809;DHT22;63338;39.544;2.596;2022-11-09T08:58:00;26.90;68.00
74809;DHT22;63338;39.544;2.596;2022-11-09T09:00:26;27.20;67.40
74809;DHT22;63338;39.544;2.596;2022-11-09T09:02:55;27.50;66.90
74809;DHT22;63338;39.544;2.596;2022-11-09T09:05:24;27.80;66.50
74809;DHT22;63338;39.544;2.596;2022-11-09T09:07:54;28.20;65.50
74809;DHT22;63338;39.544;2.596;2022-11-09T09:10:20;28.60;63.70
74809;DHT22;63338;39.544;2.596;2022-11-09T09:12:46;28.90;62.80
74809;DHT22;63338;39.544;2.596;2022-11-09T09:15:15;28.90;61.50
74809;DHT22;63338;39.544;2.596;2022-11-09T09:17:41;29.00;60.80
74809;DHT22;63338;39.544;2.596;2022-11-09T09:20:08;28.90;60.90
74809;DHT22;63338;39.544;2.596;2022-11-09T09:22:45;28.90;60.60
74809;DHT22;63338;39.544;2.596;2022-11-09T09:25:15;29.10;60.40
74809;DHT22;63338;39.544;2.596;2022-11-09T09:27:44;29.00;59.70
74809;DHT22;63338;39.544;2.596;2022-11-09T09:30:13;28.90;60.10
74809;DHT22;63338;39.544;2.596;2022-11-09T09:32:44;28.80;60.60
74809;DHT22;63338;39.544;2.596;2022-11-09T09:35:13;29.10;60.30
74809;DHT22;63338;39.544;2.596;2022-11-09T09:37:39;29.20;58.90
74809;DHT22;63338;39.544;2.596;2022-11-09T09:40:06;29.30;58.30
74809;DHT22;63338;39.544;2.596;2022-11-09T09:42:41;29.20;58.30
74809;DHT22;63338;39.544;2.596;2022-11-09T09:45:18;29.20;58.30
74809;DHT22;63338;39.544;2.596;2022-11-09T09:51:07;29.30;58.10
74809;DHT22;63338;39.544;2.596;2022-11-09T09:53:41;29.60;58.00
74809;DHT22;63338;39.544;2.596;2022-11-09T09:56:31;29.90;57.10
74809;DHT22;63338;39.544;2.596;2022-11-09T09:59:06;30.00;57.10
74809;DHT22;63338;39.544;2.596;2022-11-09T10:01:40;30.20;56.90
74809;DHT22;63338;39.544;2.596;2022-11-09T10:04:19;30.50;56.20
74809;DHT22;63338;39.544;2.596;2022-11-09T10:12:26;29.90;55.60
74809;DHT22;63338;39.544;2.596;2022-11-09T10:20:33;29.80;56.30
74809;DHT22;63338;39.544;2.596;2022-11-09T10:25:48;30.00;56.00
74809;DHT22;63338;39.544;2.596;2022-11-09T10:28:16;29.80;56.20
74809;DHT22;63338;39.544;2.596;2022-11-09T10:30:43;29.50;56.40
74809;DHT22;63338;39.544;2.596;2022-11-09T10:35:39;29.10;57.50
74809;DHT22;63338;39.544;2.596;2022-11-09T10:38:16;29.30;56.90
74809;DHT22;63338;39.544;2.596;2022-11-09T10:41:05;29.60;56.30
74809;DHT22;63338;39.544;2.596;2022-11-09T10:43:36;29.80;55.80
74809;DHT22;63338;39.544;2.596;2022-11-09T10:46:07;30.40;54.60
74809;DHT22;63338;39.544;2.596;2022-11-09T10:48:38;30.20;54.60
74809;DHT22;63338;39.544;2.596;2022-11-09T10:51:05;29.90;55.50
74809;DHT22;63338;39.544;2.596;2022-11-09T10:56:45;29.90;54.40
74809;DHT22;63338;39.544;2.596;2022-11-09T11:07:33;31.20;52.90
74809;DHT22;63338;39.544;2.596;2022-11-09T11:10:31;31.20;53.30
74809;DHT22;63338;39.544;2.596;2022-11-09T11:15:43;30.80;53.70
74809;DHT22;63338;39.544;2.596;2022-11-09T11:18:20;30.10;54.80
74809;DHT22;63338;39.544;2.596;2022-11-09T11:21:04;29.70;54.80
74809;DHT22;63338;39.544;2.596;2022-11-09T11:23:31;29.40;54.80
74809;DHT22;63338;39.544;2.596;2022-11-09T11:26:37;29.10;56.30
74809;DHT22;63338;39.544;2.596;2022-11-09T11:31:47;28.70;56.80
74809;DHT22;63338;39.544;2.596;2022-11-09T11:34:13;28.50;57.40
74809;DHT22;63338;39.544;2.596;2022-11-09T11:45:12;28.20;58.50
74809;DHT22;63338;39.544;2.596;2022-11-09T11:54:04;27.80;59.10
74809;DHT22;63338;39.544;2.596;2022-11-09T11:59:13;27.70;58.70
74809;DHT22;63338;39.544;2.596;2022-11-09T12:04:31;27.80;59.20
74809;DHT22;63338;39.544;2.596;2022-11-09T12:12:45;28.40;58.10
74809;DHT22;63338;39.544;2.596;2022-11-09T12:15:30;28.70;58.20
74809;DHT22;63338;39.544;2.596;2022-11-09T12:18:04;28.80;57.30
74809;DHT22;63338;39.544;2.596;2022-11-09T12:32:27;28.90;56.50
74809;DHT22;63338;39.544;2.596;2022-11-09T12:35:35;28.70;56.40
74809;DHT22;63338;39.544;2.596;2022-11-09T12:38:40;28.50;56.90
74809;DHT22;63338;39.544;2.596;2022-11-09T12:41:30;28.10;57.90
74809;DHT22;63338;39.544;2.596;2022-11-09T12:44:27;27.90;58.10
74809;DHT22;63338;39.544;2.596;2022-11-09T12:47:09;28.00;58.00
74809;DHT22;63338;39.544;2.596;2022-11-09T12:49:44;28.10;58.10
74809;DHT22;63338;39.544;2.596;2022-11-09T12:52:14;28.10;56.60
74809;DHT22;63338;39.544;2.596;2022-11-09T12:54:46;27.80;57.40
74809;DHT22;63338;39.544;2.596;2022-11-09T12:57:24;27.80;57.50
74809;DHT22;63338;39.544;2.596;2022-11-09T12:59:53;27.70;57.70
74809;DHT22;63338;39.544;2.596;2022-11-09T13:02:41;27.50;58.20
74809;DHT22;63338;39.544;2.596;2022-11-09T13:07:54;27.10;58.60
74809;DHT22;63338;39.544;2.596;2022-11-09T13:10:29;27.00;58.50
74809;DHT22;63338;39.544;2.596;2022-11-09T13:18:49;27.10;58.90
74809;DHT22;63338;39.544;2.596;2022-11-09T13:23:54;27.00;58.80
74809;DHT22;63338;39.544;2.596;2022-11-09T13:51:14;28.00;57.70
74809;DHT22;63338;39.544;2.596;2022-11-09T13:53:57;28.00;57.50
74809;DHT22;63338;39.544;2.596;2022-11-09T13:59:08;27.80;57.90
74809;DHT22;63338;39.544;2.596;2022-11-09T14:01:49;27.80;58.20
74809;DHT22;63338;39.544;2.596;2022-11-09T14:04:35;27.90;57.90
74809;DHT22;63338;39.544;2.596;2022-11-09T14:07:25;28.00;57.90
74809;DHT22;63338;39.544;2.596;2022-11-09T14:16:03;28.40;56.80
74809;DHT22;63338;39.544;2.596;2022-11-09T14:21:25;27.90;57.50
74809;DHT22;63338;39.544;2.596;2022-11-09T14:23:52;27.30;58.10
74809;DHT22;63338;39.544;2.596;2022-11-09T14:26:21;26.90;59.10
74809;DHT22;63338;39.544;2.596;2022-11-09T14:28:47;26.60;59.90
74809;DHT22;63338;39.544;2.596;2022-11-09T14:31:28;26.10;61.40
74809;DHT22;63338;39.544;2.596;2022-11-09T14:34:05;26.00;61.80
74809;DHT22;63338;39.544;2.596;2022-11-09T14:36:33;25.80;62.20
74809;DHT22;63338;39.544;2.596;2022-11-09T14:39:05;25.60;62.30
74809;DHT22;63338;39.544;2.596;2022-11-09T14:41:43;25.50;62.40
74809;DHT22;63338;39.544;2.596;2022-11-09T14:44:25;25.20;62.90
74809;DHT22;63338;39.544;2.596;2022-11-09T14:46:54;25.20;63.30
74809;DHT22;63338;39.544;2.596;2022-11-09T14:49:24;25.00;63.80
74809;DHT22;63338;39.544;2.596;2022-11-09T14:51:54;25.10;63.90
74809;DHT22;63338;39.544;2.596;2022-11-09T14:54:24;24.90;64.50
74809;DHT22;63338;39.544;2.596;2022-11-09T14:56:52;24.90;64.80
74809;DHT22;63338;39.544;2.596;2022-11-09T14:59:32;24.90;65.30
74809;DHT22;63338;39.544;2.596;2022-11-09T15:02:05;24.90;65.00
74809;DHT22;63338;39.544;2.596;2022-11-09T15:04:55;24.80;64.80
74809;DHT22;63338;39.544;2.596;2022-11-09T15:07:31;24.70;64.90
74809;DHT22;63338;39.544;2.596;2022-11-09T15:10:00;24.50;65.00
74809;DHT22;63338;39.544;2.596;2022-11-09T15:12:27;24.50;65.10
74809;DHT22;63338;39.544;2.596;2022-11-09T15:14:59;24.40;65.00
74809;DHT22;63338;39.544;2.596;2022-11-09T15:17:35;24.30;65.10
74809;DHT22;63338;39.544;2.596;2022-11-09T15:22:43;24.40;65.60
74809;DHT22;63338;39.544;2.596;2022-11-09T15:33:28;24.20;66.40
74809;DHT22;63338;39.544;2.596;2022-11-09T15:35:58;24.10;66.40
74809;DHT22;63338;39.544;2.596;2022-11-09T15:38:33;24.00;66.50
74809;DHT22;63338;39.544;2.596;2022-11-09T15:41:01;23.90;66.70
74809;DHT22;63338;39.544;2.596;2022-11-09T15:43:27;23.90;67.20
74809;DHT22;63338;39.544;2.596;2022-11-09T15:45:54;23.70;67.40
74809;DHT22;63338;39.544;2.596;2022-11-09T15:48:21;23.80;67.30
74809;DHT22;63338;39.544;2.596;2022-11-09T15:50:51;23.70;67.30
74809;DHT22;63338;39.544;2.596;2022-11-09T15:53:17;23.70;67.70
74809;DHT22;63338;39.544;2.596;2022-11-09T15:55:43;23.70;67.80
74809;DHT22;63338;39.544;2.596;2022-11-09T15:58:14;23.60;68.60
74809;DHT22;63338;39.544;2.596;2022-11-09T16:00:41;23.60;68.80
74809;DHT22;63338;39.544;2.596;2022-11-09T16:03:08;23.50;69.30
74809;DHT22;63338;39.544;2.596;2022-11-09T16:05:35;23.50;69.40
74809;DHT22;63338;39.544;2.596;2022-11-09T16:08:01;23.50;69.40
74809;DHT22;63338;39.544;2.596;2022-11-09T16:10:27;23.40;69.40
74809;DHT22;63338;39.544;2.596;2022-11-09T16:12:56;23.40;69.60
74809;DHT22;63338;39.544;2.596;2022-11-09T16:15:23;23.30;69.60
74809;DHT22;63338;39.544;2.596;2022-11-09T16:17:49;23.20;69.90
74809;DHT22;63338;39.544;2.596;2022-11-09T16:20:17;23.30;69.80
74809;DHT22;63338;39.544;2.596;2022-11-09T16:22:44;23.20;70.00
74809;DHT22;63338;39.544;2.596;2022-11-09T16:25:10;23.20;70.20
74809;DHT22;63338;39.544;2.596;2022-11-09T16:27:37;23.10;70.30
74809;DHT22;63338;39.544;2.596;2022-11-09T16:30:04;23.10;70.50
74809;DHT22;63338;39.544;2.596;2022-11-09T16:32:31;23.10;70.80
74809;DHT22;63338;39.544;2.596;2022-11-09T16:34:57;22.90;71.00
74809;DHT22;63338;39.544;2.596;2022-11-09T16:37:23;22.90;71.10
74809;DHT22;63338;39.544;2.596;2022-11-09T16:39:50;22.80;71.40
74809;DHT22;63338;39.544;2.596;2022-11-09T16:42:17;22.80;71.60
74809;DHT22;63338;39.544;2.596;2022-11-09T16:44:46;22.80;71.80
74809;DHT22;63338;39.544;2.596;2022-11-09T16:47:16;22.80;72.00
74809;DHT22;63338;39.544;2.596;2022-11-09T16:49:43;22.70;72.20
74809;DHT22;63338;39.544;2.596;2022-11-09T16:52:10;22.60;72.20
74809;DHT22;63338;39.544;2.596;2022-11-09T16:54:36;22.70;72.50
74809;DHT22;63338;39.544;2.596;2022-11-09T16:57:02;22.50;72.70
74809;DHT22;63338;39.544;2.596;2022-11-09T16:59:28;22.50;72.90
74809;DHT22;63338;39.544;2.596;2022-11-09T17:01:58;22.40;73.10
74809;DHT22;63338;39.544;2.596;2022-11-09T17:04:24;22.40;73.30
74809;DHT22;63338;39.544;2.596;2022-11-09T17:06:54;22.30;73.40
74809;DHT22;63338;39.544;2.596;2022-11-09T17:09:20;22.30;73.40
74809;DHT22;63338;39.544;2.596;2022-11-09T17:11:47;22.30;73.60
74809;DHT22;63338;39.544;2.596;2022-11-09T17:14:14;22.20;73.50
74809;DHT22;63338;39.544;2.596;2022-11-09T17:16:40;22.30;73.60
74809;DHT22;63338;39.544;2.596;2022-11-09T17:19:06;22.30;73.50
74809;DHT22;63338;39.544;2.596;2022-11-09T17:21:33;22.20;73.80
74809;DHT22;63338;39.544;2.596;2022-11-09T17:23:59;22.20;73.70
74809;DHT22;63338;39.544;2.596;2022-11-09T17:26:30;22.00;73.70
74809;DHT22;63338;39.544;2.596;2022-11-09T17:28:59;22.10;73.80
74809;DHT22;63338;39.544;2.596;2022-11-09T17:31:39;22.00;73.70
74809;DHT22;63338;39.544;2.596;2022-11-09T17:34:06;22.00;73.80
74809;DHT22;63338;39.544;2.596;2022-11-09T17:36:32;22.00;74.00
74809;DHT22;63338;39.544;2.596;2022-11-09T17:38:58;22.00;73.90
74809;DHT22;63338;39.544;2.596;2022-11-09T17:41:26;22.00;73.90
74809;DHT22;63338;39.544;2.596;2022-11-09T17:43:55;22.00;74.00
74809;DHT22;63338;39.544;2.596;2022-11-09T17:46:27;22.00;74.00
74809;DHT22;63338;39.544;2.596;2022-11-09T17:48:57;21.90;73.90
74809;DHT22;63338;39.544;2.596;2022-11-09T17:51:26;22.00;74.00
74809;DHT22;63338;39.544;2.596;2022-11-09T17:53:53;21.90;74.10
74809;DHT22;63338;39.544;2.596;2022-11-09T17:56:19;21.90;74.20
74809;DHT22;63338;39.544;2.596;2022-11-09T17:58:45;21.90;74.30
74809;DHT22;63338;39.544;2.596;2022-11-09T18:01:14;21.90;74.30
74809;DHT22;63338;39.544;2.596;2022-11-09T18:03:41;21.80;74.40